Time;durP1;ratioP1;P1;durP2;ratioP2;P2;SDS_P1;SDS_P2;PMS_P1;PMS_P2;Temp;Humidity;BMP_temperature;BMP_pressure;BME280_temperature;BME280_humidity;BME280_pressure;Samples;Min_cycle;Max_cycle;Signal;HPM_P1;HPM_P2
2021/06/07 00:00:54;;;;;;;27.10;23.33;;;;;;;17.14;72.05;101037.75;5044049;28;20470;-79
2021/06/07 00:03:20;;;;;;;29.37;26.10;;;;;;;17.10;72.56;101031.00;5041868;28;20486;-80
2021/06/07 00:05:46;;;;;;;27.57;23.63;;;;;;;17.16;72.14;101029.50;5043316;28;20477;-79
2021/06/07 00:08:14;;;;;;;30.23;24.00;;;;;;;17.20;72.02;101034.38;5043229;28;20905;-80
2021/06/07 00:10:41;;;;;;;26.87;23.90;;;;;;;17.29;71.70;101028.00;5043605;28;20498;-81
2021/06/07 00:13:07;;;;;;;27.60;24.60;;;;;;;17.21;72.06;101038.78;5043497;28;20494;-80
2021/06/07 00:15:34;;;;;;;28.40;24.47;;;;;;;17.28;71.45;101045.22;5043295;28;20501;-80
2021/06/07 00:18:01;;;;;;;29.83;24.70;;;;;;;17.33;71.71;101038.50;5043360;28;20501;-79
2021/06/07 00:20:30;;;;;;;30.00;25.83;;;;;;;17.20;71.82;101042.50;5043719;28;20544;-79
2021/06/07 00:22:56;;;;;;;28.63;25.70;;;;;;;17.15;72.09;101050.28;5043615;28;21077;-79
2021/06/07 00:25:24;;;;;;;33.40;25.83;;;;;;;17.18;72.11;101051.78;5043252;28;20477;-79
2021/06/07 00:27:50;;;;;;;31.47;26.40;;;;;;;16.85;73.01;101049.81;5043283;28;20484;-78
2021/06/07 00:30:17;;;;;;;32.17;26.10;;;;;;;16.79;73.51;101038.75;5043668;28;20481;-80
2021/06/07 00:32:44;;;;;;;30.53;25.37;;;;;;;16.87;72.88;101045.09;5043384;28;20430;-80
2021/06/07 00:35:15;;;;;;;29.37;26.20;;;;;;;16.92;72.72;101050.84;5027173;28;20451;-80
2021/06/07 00:37:41;;;;;;;38.03;27.13;;;;;;;17.01;72.55;101045.47;5023714;28;20513;-80
2021/06/07 00:40:09;;;;;;;30.60;27.30;;;;;;;17.03;72.63;101043.44;5043170;28;20457;-80
2021/06/07 00:42:36;;;;;;;30.20;25.80;;;;;;;16.98;72.35;101041.25;5043451;28;20533;-81
2021/06/07 00:45:05;;;;;;;28.30;25.40;;;;;;;16.91;72.84;101051.03;5043852;28;20595;-81
2021/06/07 00:47:32;;;;;;;31.77;28.30;;;;;;;16.86;72.29;101050.66;5042602;28;20477;-81
2021/06/07 00:49:58;;;;;;;32.30;26.80;;;;;;;16.62;73.00;101044.09;5043739;28;20458;-80
2021/06/07 00:52:25;;;;;;;38.17;25.90;;;;;;;16.82;72.52;101044.72;5042639;28;20510;-80
2021/06/07 00:54:51;;;;;;;29.00;24.80;;;;;;;16.73;72.86;101051.94;5043128;28;20445;-80
2021/06/07 00:57:17;;;;;;;31.30;23.33;;;;;;;16.87;72.29;101039.72;5042631;28;20512;-80
2021/06/07 00:59:45;;;;;;;28.83;25.43;;;;;;;16.69;72.36;101044.31;5042990;28;20461;-80
2021/06/07 01:02:11;;;;;;;29.77;26.53;;;;;;;16.69;72.46;101055.09;5042253;28;20858;-80
2021/06/07 01:04:37;;;;;;;28.83;25.73;;;;;;;16.64;72.64;101050.19;5039683;28;20515;-80
2021/06/07 01:07:03;;;;;;;28.87;25.73;;;;;;;16.64;72.60;101042.06;5031581;28;20497;-81
2021/06/07 01:09:30;;;;;;;27.93;25.00;;;;;;;16.81;72.13;101052.97;5042896;28;20477;-80
2021/06/07 01:11:56;;;;;;;26.97;24.03;;;;;;;16.60;72.70;101053.38;5041891;28;20497;-80
2021/06/07 01:14:22;;;;;;;27.40;24.60;;;;;;;16.51;72.98;101047.94;5043043;28;20473;-79
2021/06/07 01:16:49;;;;;;;31.93;25.30;;;;;;;16.42;73.29;101046.16;5042046;28;20545;-80
2021/06/07 01:19:17;;;;;;;28.00;24.90;;;;;;;16.31;73.43;101041.03;5042881;28;20457;-80
2021/06/07 01:21:44;;;;;;;29.00;25.93;;;;;;;16.34;73.56;101048.84;5042245;28;20505;-80
2021/06/07 01:24:11;;;;;;;33.27;27.70;;;;;;;16.35;73.36;101056.78;5042769;28;20582;-80
2021/06/07 01:26:38;;;;;;;35.17;27.57;;;;;;;16.47;72.87;101051.09;5041989;28;20505;-80
2021/06/07 01:29:04;;;;;;;29.50;26.30;;;;;;;16.37;72.65;101045.81;5042634;28;20894;-80
2021/06/07 01:31:30;;;;;;;30.50;24.40;;;;;;;16.46;72.32;101044.03;5042333;28;20515;-81
2021/06/07 01:33:57;;;;;;;33.03;25.47;;;;;;;16.33;72.61;101044.44;5042707;28;20937;-81
2021/06/07 01:36:24;;;;;;;32.50;26.47;;;;;;;16.47;72.71;101045.69;5032326;28;20466;-82
2021/06/07 01:38:50;;;;;;;31.73;26.40;;;;;;;16.52;72.31;101040.66;5022471;28;20478;-81
2021/06/07 01:41:19;;;;;;;28.57;25.60;;;;;;;16.59;72.33;101043.56;5040634;28;20485;-81
2021/06/07 01:43:46;;;;;;;28.50;24.23;;;;;;;16.42;72.05;101043.47;5042544;28;20615;-81
2021/06/07 01:46:12;;;;;;;28.80;24.17;;;;;;;16.49;71.79;101047.25;5041112;28;20481;-81
2021/06/07 01:48:39;;;;;;;33.33;26.20;;;;;;;16.50;72.18;101048.91;5042354;28;20951;-80
2021/06/07 01:51:07;;;;;;;30.80;24.77;;;;;;;16.46;72.42;101049.41;5041609;28;20559;-81
2021/06/07 01:53:33;;;;;;;36.93;26.00;;;;;;;16.49;72.10;101040.97;5042317;28;20434;-80
2021/06/07 01:56:02;;;;;;;31.73;24.90;;;;;;;16.40;72.29;101044.66;5041399;28;20537;-80
2021/06/07 01:58:30;;;;;;;30.67;25.23;;;;;;;16.36;72.47;101041.41;5041722;28;20454;-80
2021/06/07 02:00:58;;;;;;;28.90;25.63;;;;;;;16.32;72.54;101049.00;5042255;28;20533;-80
2021/06/07 02:03:25;;;;;;;31.73;27.17;;;;;;;16.20;73.15;101047.56;5043834;28;20478;-81
2021/06/07 02:05:54;;;;;;;32.27;27.03;;;;;;;16.18;73.45;101050.41;5043789;28;20473;-78
2021/06/07 02:08:20;;;;;;;36.93;25.13;;;;;;;16.27;73.08;101047.78;5025111;28;20581;-78
2021/06/07 02:10:49;;;;;;;34.27;27.47;;;;;;;16.41;72.62;101043.66;5040667;28;20473;-79
2021/06/07 02:13:15;;;;;;;36.60;27.70;;;;;;;16.36;72.86;101053.06;5044052;28;20454;-79
2021/06/07 02:15:43;;;;;;;34.97;27.67;;;;;;;16.21;73.06;101051.09;5045592;28;20488;-79
2021/06/07 02:18:11;;;;;;;29.70;25.40;;;;;;;16.27;72.91;101055.88;5046095;28;20450;-79
2021/06/07 02:20:38;;;;;;;31.73;25.07;;;;;;;16.24;72.65;101056.19;5045325;28;20576;-79
2021/06/07 02:23:04;;;;;;;30.30;25.10;;;;;;;16.21;72.77;101053.78;5046672;28;20501;-79
2021/06/07 02:25:31;;;;;;;29.67;25.40;;;;;;;16.26;72.44;101048.78;5045097;28;20469;-79
2021/06/07 02:27:57;;;;;;;30.30;24.30;;;;;;;16.34;72.50;101054.22;5045898;28;20476;-79
2021/06/07 02:30:26;;;;;;;30.10;26.20;;;;;;;16.28;72.27;101049.44;5045669;28;20448;-79
2021/06/07 02:32:55;;;;;;;26.40;23.13;;;;;;;16.40;71.78;101045.47;5045839;28;20461;-80
2021/06/07 02:35:22;;;;;;;34.23;25.87;;;;;;;16.39;71.77;101043.81;5045559;28;20512;-80
2021/06/07 02:37:50;;;;;;;27.70;23.57;;;;;;;16.40;71.50;101041.94;5041453;28;20493;-80
2021/06/07 02:40:19;;;;;;;29.10;24.37;;;;;;;16.44;71.47;101044.19;5036316;28;20453;-80
2021/06/07 02:42:45;;;;;;;28.40;23.90;;;;;;;16.15;72.29;101045.31;5045677;28;20477;-80
2021/06/07 02:45:14;;;;;;;26.30;23.40;;;;;;;16.03;72.44;101046.59;5045315;28;20884;-79
2021/06/07 02:47:41;;;;;;;27.97;23.90;;;;;;;16.26;71.82;101040.69;5046007;28;20453;-79
2021/06/07 02:50:11;;;;;;;28.90;22.23;;;;;;;16.29;71.26;101052.00;5044868;28;20477;-79
2021/06/07 02:52:46;;;;;;;29.30;23.33;;;;;;;16.37;71.04;101045.81;5045192;28;20539;-80
2021/06/07 02:55:13;;;;;;;26.60;22.93;;;;;;;16.45;71.11;101050.41;5044753;28;20456;-79
2021/06/07 02:57:39;;;;;;;28.77;24.80;;;;;;;16.48;70.54;101047.41;5045570;28;20538;-80
2021/06/07 03:00:07;;;;;;;29.87;23.53;;;;;;;16.27;71.04;101045.91;5045052;28;20496;-80
2021/06/07 03:02:33;;;;;;;27.43;23.13;;;;;;;16.38;70.91;101045.63;5049163;28;20485;-79
2021/06/07 03:04:59;;;;;;;28.40;22.20;;;;;;;16.40;70.63;101050.88;5051973;28;20477;-79
2021/06/07 03:07:27;;;;;;;28.10;22.40;;;;;;;16.44;70.86;101046.00;5051393;28;20477;-80
2021/06/07 03:09:53;;;;;;;27.10;22.90;;;;;;;16.41;70.65;101041.78;5045916;28;20469;-80
2021/06/07 03:12:19;;;;;;;30.03;22.30;;;;;;;16.41;70.73;101046.34;5051907;28;20481;-79
2021/06/07 03:14:45;;;;;;;25.33;22.70;;;;;;;16.47;70.75;101043.84;5052872;28;20439;-80
2021/06/07 03:17:12;;;;;;;31.50;23.30;;;;;;;16.24;70.86;101048.94;5051704;28;20564;-80
2021/06/07 03:19:38;;;;;;;25.27;22.13;;;;;;;16.35;70.85;101055.91;5052289;28;20449;-80
2021/06/07 03:22:04;;;;;;;25.70;22.80;;;;;;;16.41;70.81;101049.88;5052005;28;20983;-79
2021/06/07 03:24:32;;;;;;;28.37;23.27;;;;;;;16.50;70.55;101051.63;5051666;28;20465;-80
2021/06/07 03:26:58;;;;;;;25.40;22.00;;;;;;;16.44;70.55;101051.41;5051492;28;20458;-81
2021/06/07 03:29:25;;;;;;;25.97;21.30;;;;;;;16.38;71.20;101052.91;5052253;28;20438;-79
2021/06/07 03:31:52;;;;;;;28.70;23.13;;;;;;;16.38;71.10;101042.94;5052936;28;20492;-81
2021/06/07 03:34:18;;;;;;;30.63;24.47;;;;;;;16.39;71.25;101043.81;5050101;28;20481;-80
2021/06/07 03:36:44;;;;;;;29.23;23.20;;;;;;;16.34;71.43;101043.44;5044820;28;20477;-80
2021/06/07 03:39:11;;;;;;;27.17;24.23;;;;;;;16.47;71.11;101048.38;5043765;28;20457;-78
2021/06/07 03:41:38;;;;;;;28.10;24.23;;;;;;;16.41;70.75;101040.94;5027429;28;20949;-80
2021/06/07 03:44:05;;;;;;;25.57;22.60;;;;;;;16.37;71.44;101041.25;5041181;28;20524;-80
2021/06/07 03:46:31;;;;;;;31.10;23.20;;;;;;;16.55;70.93;101040.34;5044192;28;20493;-80
2021/06/07 03:48:57;;;;;;;27.80;23.50;;;;;;;16.52;70.37;101037.97;5044206;28;20450;-80
2021/06/07 03:51:23;;;;;;;29.57;24.23;;;;;;;16.35;71.29;101037.88;5043808;28;20560;-80
2021/06/07 03:53:49;;;;;;;29.10;23.87;;;;;;;16.48;71.06;101039.31;5044661;28;20434;-79
2021/06/07 03:56:17;;;;;;;25.70;23.00;;;;;;;16.52;70.90;101040.66;5045650;28;20493;-80
2021/06/07 03:58:44;;;;;;;25.80;22.93;;;;;;;16.56;70.60;101042.91;5046567;28;20525;-80
2021/06/07 04:01:10;;;;;;;30.50;23.50;;;;;;;16.72;70.55;101038.59;5043977;28;20557;-80
2021/06/07 04:03:37;;;;;;;27.03;24.03;;;;;;;16.68;70.47;101043.47;5044455;28;20477;-80
2021/06/07 04:06:03;;;;;;;31.43;23.10;;;;;;;16.55;70.41;101037.66;5044360;28;20496;-79
2021/06/07 04:08:30;;;;;;;30.07;25.53;;;;;;;16.45;71.34;101043.16;5044135;28;20547;-79
2021/06/07 04:10:56;;;;;;;29.53;25.30;;;;;;;16.62;70.92;101035.16;5040913;28;20683;-79
2021/06/07 04:13:22;;;;;;;28.00;24.60;;;;;;;16.72;70.51;101034.03;5024690;28;20918;-80
2021/06/07 04:15:50;;;;;;;32.43;25.90;;;;;;;16.76;70.19;101042.66;5036927;28;20497;-80
2021/06/07 04:18:16;;;;;;;29.57;25.10;;;;;;;16.86;70.12;101039.88;5044031;28;20458;-80
2021/06/07 04:20:42;;;;;;;31.93;26.67;;;;;;;16.86;70.29;101037.16;5043539;28;20481;-80
2021/06/07 04:23:09;;;;;;;32.60;26.60;;;;;;;16.87;70.29;101038.84;5044064;28;20564;-80
2021/06/07 04:25:35;;;;;;;36.07;27.80;;;;;;;16.87;70.53;101045.09;5043535;28;20533;-80
2021/06/07 04:28:03;;;;;;;29.53;26.43;;;;;;;16.84;70.38;101045.44;5042162;28;20543;-79
2021/06/07 04:30:31;;;;;;;35.00;27.83;;;;;;;16.68;71.19;101042.59;5035251;28;20477;-81
2021/06/07 04:33:00;;;;;;;34.33;25.33;;;;;;;16.62;71.07;101045.97;5039516;28;20450;-81
2021/06/07 04:35:26;;;;;;;31.83;26.73;;;;;;;16.55;70.90;101043.88;5041785;28;20454;-85
2021/06/07 04:37:54;;;;;;;34.00;26.57;;;;;;;16.54;71.31;101044.03;5043055;28;20457;-80
2021/06/07 04:40:21;;;;;;;37.00;26.60;;;;;;;16.48;70.85;101045.53;5041115;28;20445;-72
2021/06/07 04:42:47;;;;;;;34.43;26.77;;;;;;;16.64;70.41;101046.63;5041503;28;20512;-73
2021/06/07 04:45:16;;;;;;;37.03;27.60;;;;;;;16.54;70.50;101041.34;5029993;28;20454;-72
2021/06/07 04:47:42;;;;;;;32.40;26.73;;;;;;;16.69;69.98;101042.44;5022414;28;20525;-73
2021/06/07 04:50:12;;;;;;;30.40;26.57;;;;;;;16.45;70.70;101045.84;5040322;28;20494;-73
2021/06/07 04:52:57;;;;;;;31.07;25.63;;;;;;;16.72;69.86;101052.94;5041665;28;20525;-72
2021/06/07 04:55:25;;;;;;;34.40;26.77;;;;;;;16.76;69.64;101051.59;5040727;28;20450;-72
2021/06/07 04:57:51;;;;;;;29.90;24.70;;;;;;;16.79;69.35;101050.44;5041923;28;20509;-71
2021/06/07 05:00:20;;;;;;;32.17;25.90;;;;;;;16.68;69.76;101058.78;5039709;28;20504;-73
2021/06/07 05:02:47;;;;;;;32.70;24.20;;;;;;;16.88;69.38;101056.75;5041056;28;20545;-74
2021/06/07 05:05:15;;;;;;;29.90;24.13;;;;;;;17.01;69.36;101057.16;5042187;28;20450;-72
2021/06/07 05:07:41;;;;;;;29.17;24.93;;;;;;;17.13;68.46;101054.97;5042442;28;20488;-72
2021/06/07 05:10:09;;;;;;;26.93;24.00;;;;;;;17.16;68.38;101046.53;5040634;28;20453;-72
2021/06/07 05:12:35;;;;;;;29.17;23.93;;;;;;;16.96;68.37;101059.50;5042119;28;20718;-72
2021/06/07 05:15:01;;;;;;;26.20;22.13;;;;;;;16.86;68.08;101054.22;5041168;28;20500;-72
2021/06/07 05:17:27;;;;;;;27.73;23.37;;;;;;;16.96;68.14;101064.91;5039198;28;20563;-72
2021/06/07 05:19:54;;;;;;;25.53;22.23;;;;;;;16.74;68.28;101063.56;5036148;28;20458;-72
2021/06/07 05:22:22;;;;;;;25.33;21.00;;;;;;;16.90;67.94;101060.13;5032987;28;20482;-72
2021/06/07 05:24:48;;;;;;;24.63;21.90;;;;;;;16.87;67.76;101057.75;5040718;28;20473;-73
2021/06/07 05:27:14;;;;;;;26.20;21.57;;;;;;;16.91;67.59;101051.88;5039427;28;21033;-71
2021/06/07 05:29:40;;;;;;;23.60;20.30;;;;;;;16.97;67.54;101061.16;5032251;28;20494;-71
2021/06/07 05:32:07;;;;;;;24.33;21.37;;;;;;;17.12;67.54;101067.66;5039897;28;20699;-72
2021/06/07 05:34:33;;;;;;;26.10;20.50;;;;;;;17.12;67.20;101059.53;5047153;28;20457;-73
2021/06/07 05:36:59;;;;;;;26.87;22.97;;;;;;;17.42;66.33;101059.13;5036119;28;20549;-73
2021/06/07 05:39:27;;;;;;;24.30;21.80;;;;;;;17.40;65.75;101056.56;5040821;28;20461;-73
2021/06/07 05:41:53;;;;;;;25.47;19.87;;;;;;;17.46;65.89;101057.75;5040709;28;20899;-73
2021/06/07 05:44:19;;;;;;;23.43;20.23;;;;;;;17.59;65.97;101063.53;5040692;28;20482;-72
2021/06/07 05:46:47;;;;;;;22.30;19.67;;;;;;;17.68;65.33;101062.53;5038369;28;21006;-71
2021/06/07 05:49:13;;;;;;;27.20;21.70;;;;;;;17.80;65.09;101063.06;5038801;28;20472;-71
2021/06/07 05:51:39;;;;;;;23.77;20.00;;;;;;;17.86;65.00;101069.69;5034381;28;21107;-70
2021/06/07 05:54:06;;;;;;;26.93;22.43;;;;;;;17.98;64.54;101075.59;5038091;28;20804;-70
2021/06/07 05:56:33;;;;;;;26.57;22.80;;;;;;;17.81;65.08;101063.88;5038049;28;20926;-70
2021/06/07 05:58:59;;;;;;;27.83;22.33;;;;;;;17.98;64.25;101065.63;5037796;28;20446;-70
2021/06/07 06:01:26;;;;;;;25.00;21.40;;;;;;;17.92;64.36;101063.59;5026667;28;20505;-70
2021/06/07 06:03:53;;;;;;;21.57;19.00;;;;;;;18.11;64.49;101064.28;5021263;28;20478;-70
2021/06/07 06:06:19;;;;;;;20.17;18.03;;;;;;;18.42;63.07;101059.00;5020316;28;20466;-69
2021/06/07 06:08:46;;;;;;;24.40;20.23;;;;;;;18.33;62.63;101065.44;5020766;28;20976;-72
2021/06/07 06:11:13;;;;;;;22.67;20.27;;;;;;;18.52;62.37;101069.63;5029966;28;20481;-72
2021/06/07 06:13:40;;;;;;;25.53;19.90;;;;;;;18.58;62.27;101066.25;5036268;28;20492;-72
2021/06/07 06:16:07;;;;;;;21.00;18.70;;;;;;;18.10;63.34;101065.28;5040485;28;20489;-72
2021/06/07 06:18:35;;;;;;;21.23;19.17;;;;;;;18.32;62.43;101064.59;5025077;28;20443;-72
2021/06/07 06:21:01;;;;;;;25.77;20.67;;;;;;;18.11;63.51;101062.41;5025188;28;20626;-72
2021/06/07 06:23:27;;;;;;;23.63;19.53;;;;;;;18.34;62.67;101065.25;5044785;28;20481;-72
2021/06/07 06:25:53;;;;;;;22.67;19.40;;;;;;;18.37;62.61;101069.50;5040143;28;20555;-71
2021/06/07 06:28:19;;;;;;;21.33;18.77;;;;;;;18.56;62.26;101065.56;5039898;28;20485;-71
2021/06/07 06:30:47;;;;;;;21.03;18.83;;;;;;;18.60;62.02;101067.75;5038526;28;20484;-71
2021/06/07 06:33:13;;;;;;;20.93;17.70;;;;;;;18.74;61.58;101062.63;5039371;28;20442;-71
2021/06/07 06:35:39;;;;;;;19.70;17.30;;;;;;;19.01;60.85;101064.09;5039066;28;20504;-71
2021/06/07 06:38:06;;;;;;;24.73;17.70;;;;;;;19.09;60.72;101066.75;5037890;28;20575;-72
2021/06/07 06:40:34;;;;;;;20.23;17.57;;;;;;;19.25;60.09;101070.41;5039765;28;21030;-72
2021/06/07 06:43:01;;;;;;;18.63;16.80;;;;;;;19.53;59.63;101060.75;5040506;28;20565;-72
2021/06/07 06:45:28;;;;;;;20.80;16.23;;;;;;;19.15;58.96;101068.75;5039640;28;20472;-71
2021/06/07 06:47:56;;;;;;;18.53;15.30;;;;;;;19.98;56.93;101068.25;5038732;28;20895;-72
2021/06/07 06:50:24;;;;;;;17.43;15.63;;;;;;;20.49;54.58;101069.28;5039959;28;20461;-72
2021/06/07 06:52:50;;;;;;;16.90;15.20;;;;;;;22.76;49.13;101070.91;5039715;28;21073;-72
2021/06/07 06:55:17;;;;;;;17.23;14.00;;;;;;;25.23;43.63;101067.53;5038729;28;20453;-72
2021/06/07 06:57:43;;;;;;;21.67;15.83;;;;;;;26.33;40.54;101074.63;5040163;28;20488;-72
2021/06/07 07:00:11;;;;;;;16.20;12.37;;;;;;;27.95;36.59;101078.78;5040670;28;20445;-72
2021/06/07 07:02:37;;;;;;;16.13;12.10;;;;;;;26.40;38.95;101080.88;5038695;28;20509;-72
2021/06/07 07:05:06;;;;;;;14.93;11.80;;;;;;;25.32;41.32;101077.22;5043746;28;20496;-72
2021/06/07 07:07:33;;;;;;;14.97;13.37;;;;;;;25.31;42.02;101081.84;5040893;28;20537;-72
2021/06/07 07:09:59;;;;;;;14.80;12.70;;;;;;;25.35;42.63;101085.00;5042748;28;20531;-73
2021/06/07 07:12:26;;;;;;;14.40;13.20;;;;;;;24.67;44.08;101083.53;5042691;28;20453;-72
2021/06/07 07:14:53;;;;;;;13.63;12.37;;;;;;;24.18;44.09;101087.50;5042744;28;20453;-72
2021/06/07 07:17:19;;;;;;;13.67;12.47;;;;;;;23.33;46.21;101084.41;5043687;28;20589;-72
2021/06/07 07:19:46;;;;;;;14.33;12.93;;;;;;;23.06;47.58;101089.75;5043013;28;20496;-72
2021/06/07 07:22:14;;;;;;;15.33;13.50;;;;;;;23.41;46.92;101082.31;5042983;28;20484;-72
2021/06/07 07:24:44;;;;;;;16.13;13.90;;;;;;;23.17;47.71;101089.16;5043975;28;20434;-72
2021/06/07 07:27:12;;;;;;;13.67;12.33;;;;;;;22.78;48.14;101089.78;5043197;28;20674;-72
2021/06/07 07:29:38;;;;;;;13.90;12.60;;;;;;;22.09;50.53;101088.63;5041005;28;20486;-72
2021/06/07 07:32:06;;;;;;;16.83;13.70;;;;;;;22.09;50.34;101089.44;5043392;28;20469;-72
2021/06/07 07:34:32;;;;;;;14.43;12.97;;;;;;;22.26;50.11;101081.84;5043633;28;20488;-72
2021/06/07 07:36:59;;;;;;;16.03;14.47;;;;;;;22.17;50.58;101089.31;5042081;28;20488;-72
2021/06/07 07:39:26;;;;;;;15.10;13.60;;;;;;;22.74;49.22;101090.19;5042300;28;20835;-72
2021/06/07 07:41:52;;;;;;;15.33;12.70;;;;;;;22.07;50.38;101088.81;5041955;28;20501;-72
2021/06/07 07:44:19;;;;;;;14.47;12.97;;;;;;;22.11;49.63;101092.81;5041321;28;20486;-73
2021/06/07 07:46:46;;;;;;;15.70;14.00;;;;;;;21.63;51.54;101087.97;5041500;28;20629;-72
2021/06/07 07:49:12;;;;;;;14.30;12.90;;;;;;;22.25;48.92;101087.50;5040031;28;20525;-72
2021/06/07 07:51:38;;;;;;;13.07;11.83;;;;;;;22.36;49.02;101087.00;5041428;28;20520;-72
2021/06/07 07:54:05;;;;;;;14.83;13.33;;;;;;;22.27;49.27;101090.84;5042780;28;20458;-72
2021/06/07 07:56:33;;;;;;;15.23;13.70;;;;;;;22.02;49.54;101085.00;5042651;28;20495;-72
2021/06/07 07:58:59;;;;;;;15.53;12.63;;;;;;;22.63;48.40;101090.72;5041877;28;20468;-73
2021/06/07 08:01:26;;;;;;;13.77;12.37;;;;;;;23.00;48.14;101096.84;5042356;28;20651;-72
2021/06/07 08:03:52;;;;;;;14.30;12.80;;;;;;;22.10;49.57;101082.13;5042607;28;20485;-72
2021/06/07 08:06:18;;;;;;;14.63;12.40;;;;;;;22.03;50.37;101090.25;5041809;28;20481;-72
2021/06/07 08:08:44;;;;;;;13.47;11.40;;;;;;;22.48;49.20;101090.00;5042313;28;20505;-72
2021/06/07 08:11:11;;;;;;;13.47;12.17;;;;;;;22.72;48.04;101096.88;5041584;28;20500;-72
2021/06/07 08:13:39;;;;;;;13.20;11.77;;;;;;;22.82;48.49;101105.53;5030268;28;20456;-72
2021/06/07 08:16:05;;;;;;;16.00;11.50;;;;;;;23.19;46.47;101091.69;5033740;28;20477;-72
2021/06/07 08:18:31;;;;;;;11.90;10.50;;;;;;;23.06;47.69;101092.47;5042090;28;20468;-72
2021/06/07 08:20:58;;;;;;;13.13;11.93;;;;;;;23.34;46.93;101095.09;5034000;28;20517;-72
2021/06/07 08:23:24;;;;;;;15.20;13.63;;;;;;;21.92;49.31;101096.22;5041561;28;20477;-72
2021/06/07 08:25:50;;;;;;;13.20;11.70;;;;;;;22.81;47.58;101092.97;5030538;28;20509;-72
2021/06/07 08:28:16;;;;;;;14.13;12.33;;;;;;;23.27;47.20;101094.25;5039647;28;20473;-72
2021/06/07 08:30:44;;;;;;;18.37;13.23;;;;;;;22.08;48.36;101090.50;5039652;28;20477;-72
2021/06/07 08:33:10;;;;;;;14.57;12.60;;;;;;;21.79;50.24;101086.88;5042949;28;20478;-72
2021/06/07 08:35:36;;;;;;;13.27;11.83;;;;;;;22.77;48.01;101091.66;5041866;28;20480;-72
2021/06/07 08:38:03;;;;;;;13.20;11.90;;;;;;;23.50;47.17;101093.91;5041097;28;20486;-72
2021/06/07 08:40:29;;;;;;;13.00;11.47;;;;;;;23.76;45.83;101086.81;5040855;28;20917;-72
2021/06/07 08:42:56;;;;;;;13.27;11.73;;;;;;;23.53;45.81;101092.66;5041843;28;20493;-73
2021/06/07 08:45:23;;;;;;;14.47;12.20;;;;;;;24.25;44.15;101085.63;5040831;28;20468;-72
2021/06/07 08:47:52;;;;;;;14.80;13.20;;;;;;;23.78;45.62;101101.09;5041791;28;20461;-72
2021/06/07 08:50:20;;;;;;;12.87;11.13;;;;;;;23.80;45.81;101097.13;5041089;28;20477;-72
2021/06/07 08:52:47;;;;;;;14.00;12.50;;;;;;;23.89;44.02;101092.34;5040490;28;20473;-72
2021/06/07 08:55:15;;;;;;;14.57;12.87;;;;;;;23.63;45.07;101088.47;5040455;28;20454;-73
2021/06/07 08:57:43;;;;;;;13.87;12.57;;;;;;;22.88;47.90;101093.84;5040941;28;20936;-72
2021/06/07 09:00:12;;;;;;;15.10;12.30;;;;;;;23.60;47.23;101099.81;5029801;28;20513;-73
2021/06/07 09:02:41;;;;;;;12.87;11.23;;;;;;;23.66;45.82;101096.25;5022060;28;20474;-73
2021/06/07 09:05:10;;;;;;;13.90;12.50;;;;;;;22.58;47.08;101092.38;5037371;28;20446;-72
2021/06/07 09:07:55;;;;;;;19.17;12.70;;;;;;;23.25;46.19;101097.19;5036967;28;20441;-72
2021/06/07 09:10:22;;;;;;;12.77;11.57;;;;;;;23.53;46.02;101085.31;5040179;28;20457;-72
2021/06/07 09:12:52;;;;;;;12.60;11.27;;;;;;;23.86;45.96;101098.22;5040847;28;20442;-73
2021/06/07 09:15:27;;;;;;;13.07;11.10;;;;;;;23.83;46.90;101091.25;5040446;28;20893;-72
2021/06/07 09:17:54;;;;;;;15.50;12.43;;;;;;;23.63;46.11;101087.66;5040083;28;20473;-72
2021/06/07 09:20:23;;;;;;;13.40;12.20;;;;;;;23.15;46.87;101093.97;5039553;28;20485;-72
2021/06/07 09:22:50;;;;;;;13.67;12.33;;;;;;;23.16;47.00;101097.53;5041093;28;20832;-72
2021/06/07 09:25:18;;;;;;;13.33;11.93;;;;;;;22.79;48.57;101095.00;5033005;28;20512;-72
2021/06/07 09:28:04;;;;;;;13.77;12.23;;;;;;;22.77;48.38;101090.81;5029969;28;20478;-72
2021/06/07 09:30:32;;;;;;;12.03;10.77;;;;;;;22.45;49.31;101085.78;5037282;28;20473;-72
2021/06/07 09:33:24;;;;;;;13.07;11.70;;;;;;;22.59;48.92;101092.19;5020630;28;20427;-72
2021/06/07 09:36:24;;;;;;;12.73;11.40;;;;;;;22.11;50.30;101087.38;5026472;28;20748;-72
2021/06/07 09:38:57;;;;;;;14.43;11.63;;;;;;;22.53;48.16;101088.38;5041196;28;20746;-72
2021/06/07 09:41:24;;;;;;;12.40;11.20;;;;;;;22.77;48.38;101091.66;5040330;28;20539;-72
2021/06/07 09:43:51;;;;;;;13.10;11.60;;;;;;;23.36;47.13;101092.19;5040187;28;20502;-72
2021/06/07 09:46:20;;;;;;;15.40;12.07;;;;;;;22.76;47.62;101090.00;5040034;28;20489;-72
2021/06/07 09:48:46;;;;;;;13.97;11.77;;;;;;;22.83;48.01;101090.00;5041369;28;20454;-72
2021/06/07 09:51:18;;;;;;;12.33;10.90;;;;;;;23.37;47.44;101096.59;5039102;28;20509;-72
2021/06/07 09:53:48;;;;;;;16.03;12.93;;;;;;;22.76;48.03;101087.25;5040822;28;20454;-72
2021/06/07 09:56:14;;;;;;;13.97;11.77;;;;;;;22.21;50.24;101089.78;5040286;28;20990;-72
2021/06/07 09:58:41;;;;;;;13.00;11.70;;;;;;;22.34;50.04;101084.47;5040282;28;20454;-72
2021/06/07 10:01:13;;;;;;;15.43;11.80;;;;;;;22.13;50.58;101082.59;5040305;28;20481;-72
2021/06/07 10:03:42;;;;;;;20.20;12.57;;;;;;;21.79;52.72;101081.44;5041462;28;20481;-72
2021/06/07 10:06:22;;;;;;;13.40;11.70;;;;;;;21.42;53.15;101083.31;5038665;28;20493;-72
2021/06/07 10:08:56;;;;;;;13.37;11.97;;;;;;;20.98;53.78;101086.94;5030569;28;20465;-72
2021/06/07 10:11:24;;;;;;;15.00;12.87;;;;;;;21.12;53.17;101089.84;5027934;28;20505;-72
2021/06/07 10:13:51;;;;;;;17.10;12.17;;;;;;;21.37;53.07;101091.22;5040559;28;20438;-71
2021/06/07 10:16:17;;;;;;;14.60;12.80;;;;;;;21.55;52.56;101084.53;5040294;28;20481;-72
2021/06/07 10:18:43;;;;;;;13.83;12.23;;;;;;;21.01;54.12;101092.00;5041030;28;20500;-71
2021/06/07 10:21:11;;;;;;;15.67;13.43;;;;;;;21.15;53.28;101094.91;5040068;28;20501;-72
2021/06/07 10:23:38;;;;;;;14.97;12.90;;;;;;;20.82;54.38;101092.59;5041192;28;20533;-70
2021/06/07 10:26:07;;;;;;;15.90;13.13;;;;;;;20.59;54.91;101090.75;5040330;28;20480;-71
2021/06/07 10:28:35;;;;;;;17.57;12.90;;;;;;;20.64;54.72;101092.94;5038545;28;20552;-71
2021/06/07 10:31:09;;;;;;;16.63;12.80;;;;;;;21.31;53.35;101085.69;5039940;28;20473;-71
2021/06/07 10:33:37;;;;;;;15.30;13.43;;;;;;;21.72;52.43;101083.25;5041476;28;20444;-71
2021/06/07 10:36:34;;;;;;;15.90;14.30;;;;;;;21.68;51.53;101084.66;5043358;28;20485;-71
2021/06/07 10:39:26;;;;;;;14.27;12.87;;;;;;;22.43;51.05;101082.44;5029476;28;20515;-71
2021/06/07 10:42:16;;;;;;;19.17;13.60;;;;;;;22.55;50.17;101090.88;5034187;28;20478;-71
2021/06/07 10:44:44;;;;;;;15.00;12.73;;;;;;;22.24;50.98;101093.97;5024593;28;20511;-71
2021/06/07 10:47:12;;;;;;;17.57;12.83;;;;;;;22.75;49.43;101094.56;5034154;28;20485;-71
2021/06/07 10:49:40;;;;;;;14.27;12.20;;;;;;;23.20;48.63;101102.41;5043603;28;20460;-71
2021/06/07 10:52:08;;;;;;;14.47;11.90;;;;;;;22.81;48.33;101092.09;5039544;28;20663;-71
2021/06/07 10:54:36;;;;;;;12.73;11.43;;;;;;;22.27;50.34;101101.75;5043293;28;20461;-71
2021/06/07 10:57:28;;;;;;;16.07;12.47;;;;;;;21.99;50.66;101092.53;5041883;28;20474;-71
2021/06/07 10:59:56;;;;;;;13.27;11.97;;;;;;;22.19;50.32;101091.84;5044160;28;20449;-71
2021/06/07 11:02:24;;;;;;;19.53;11.60;;;;;;;22.32;49.74;101099.31;5042887;28;20484;-71
2021/06/07 11:05:01;;;;;;;11.83;10.73;;;;;;;22.47;49.84;101096.50;5043462;28;20489;-71
2021/06/07 11:07:27;;;;;;;16.80;11.73;;;;;;;22.00;50.64;101087.91;5043459;28;20734;-71
2021/06/07 11:10:14;;;;;;;11.67;10.50;;;;;;;22.54;49.65;101094.66;5044024;28;20462;-71
2021/06/07 11:12:42;;;;;;;14.67;11.03;;;;;;;22.89;49.47;101097.38;5040594;28;20458;-71